createdAt,value
2023-11-18T00:02:03.756Z,60.18
2023-11-18T00:05:08.632Z,59.43
2023-11-18T00:08:11.151Z,58.74
2023-11-18T00:11:14.614Z,59.47
2023-11-18T00:14:17.011Z,60.60
2023-11-18T00:17:21.403Z,60.72
2023-11-18T00:20:25.471Z,60.16
2023-11-18T00:23:27.992Z,59.97
2023-11-18T00:26:30.502Z,59.45
2023-11-18T00:29:35.284Z,60.45
2023-11-18T00:32:38.628Z,60.30
2023-11-18T00:35:41.202Z,60.49
2023-11-18T00:38:43.661Z,60.34
2023-11-18T00:41:46.135Z,61.09
2023-11-18T00:44:48.894Z,60.21
2023-11-18T00:47:51.340Z,61.42
2023-11-18T00:50:53.805Z,60.51
2023-11-18T00:53:56.248Z,60.39
2023-11-18T00:56:58.803Z,60.27
2023-11-18T01:00:01.252Z,60.48
2023-11-18T01:03:04.555Z,60.97
2023-11-18T01:06:07.666Z,58.73
2023-11-18T01:09:10.804Z,59.73
2023-11-18T01:12:13.264Z,60.20
2023-11-18T01:15:15.905Z,59.61
2023-11-18T01:18:19.109Z,60.15
2023-11-18T01:21:22.807Z,60.22
2023-11-18T01:24:25.531Z,61.12
2023-11-18T01:27:28.455Z,59.68
2023-11-18T01:30:31.414Z,60.11
2023-11-18T01:33:38.519Z,60.08
2023-11-18T01:36:40.939Z,59.75
2023-11-18T01:39:43.390Z,60.56
2023-11-18T01:42:47.793Z,60.74
2023-11-18T01:45:50.671Z,60.93
2023-11-18T01:48:53.674Z,59.69
2023-11-18T01:51:57.800Z,60.55
2023-11-18T01:55:00.773Z,60.83
2023-11-18T01:58:09.684Z,59.74
2023-11-18T02:01:12.335Z,60.69
2023-11-18T02:04:16.473Z,60.17
2023-11-18T02:07:19.188Z,61.16
2023-11-18T02:10:21.738Z,61.30
2023-11-18T02:13:28.628Z,61.29
2023-11-18T02:16:32.562Z,60.56
2023-11-18T02:19:36.010Z,60.39
2023-11-18T02:22:38.502Z,59.91
2023-11-18T02:25:46.212Z,60.60
2023-11-18T02:28:48.748Z,60.91
2023-11-18T02:31:53.984Z,59.99
2023-11-18T02:35:17.051Z,60.09
2023-11-18T02:38:21.674Z,61.13
2023-11-18T02:41:25.562Z,61.85
2023-11-18T02:44:29.225Z,61.89
2023-11-18T02:47:31.760Z,60.15
2023-11-18T02:50:36.614Z,61.20
2023-11-18T02:53:39.215Z,61.77
2023-11-18T02:56:41.635Z,61.40
2023-11-18T02:59:44.146Z,61.01
2023-11-18T03:02:48.302Z,59.95
2023-11-18T03:05:51.227Z,60.11
2023-11-18T03:08:54.387Z,61.96
2023-11-18T03:11:56.835Z,60.89
2023-11-18T03:14:59.471Z,59.43
2023-11-18T03:18:01.934Z,60.92
2023-11-18T03:21:04.879Z,60.37
2023-11-18T03:24:07.932Z,60.86
2023-11-18T03:27:10.365Z,59.11
2023-11-18T03:30:13.009Z,59.28
2023-11-18T03:33:15.539Z,60.50
2023-11-18T03:36:19.261Z,58.92
2023-11-18T03:39:22.286Z,60.02
2023-11-18T03:42:24.712Z,61.33
2023-11-18T03:45:27.576Z,61.31
2023-11-18T03:48:29.996Z,60.40
2023-11-18T03:51:32.417Z,60.66
2023-11-18T03:54:34.901Z,61.05
2023-11-18T03:57:37.406Z,61.22
2023-11-18T04:00:39.854Z,62.30
2023-11-18T04:03:43.229Z,61.13
2023-11-18T04:06:47.897Z,62.06
2023-11-18T04:09:50.465Z,61.41
2023-11-18T04:12:52.943Z,60.73
2023-11-18T04:15:55.411Z,61.35
2023-11-18T04:18:57.832Z,61.52
2023-11-18T04:22:00.315Z,61.82
2023-11-18T04:25:02.739Z,61.08
2023-11-18T04:28:05.453Z,61.55
2023-11-18T04:31:08.205Z,61.86
2023-11-18T04:34:10.728Z,61.05
2023-11-18T04:37:13.224Z,60.87
2023-11-18T04:40:16.823Z,60.95
2023-11-18T04:43:25.388Z,60.13
2023-11-18T04:46:33.027Z,61.68
2023-11-18T04:49:36.304Z,61.09
2023-11-18T04:52:38.899Z,59.71
2023-11-18T04:55:41.430Z,60.82
2023-11-18T04:58:43.973Z,60.94
2023-11-18T05:01:46.816Z,62.66
2023-11-18T05:04:50.161Z,58.08
2023-11-18T05:07:52.871Z,61.69
2023-11-18T05:10:55.784Z,61.33
2023-11-18T05:13:58.407Z,62.14
2023-11-18T05:17:00.848Z,61.05
2023-11-18T05:20:04.906Z,61.01
2023-11-18T05:23:07.457Z,62.94
2023-11-18T05:26:10.565Z,62.94
2023-11-18T05:29:17.734Z,60.05
2023-11-18T05:32:21.649Z,62.09
2023-11-18T05:35:29.364Z,59.21
2023-11-18T05:38:35.842Z,62.69
2023-11-18T05:41:40.974Z,60.07
2023-11-18T05:44:43.887Z,61.23
2023-11-18T05:47:46.318Z,62.61
2023-11-18T05:50:49.379Z,61.49
2023-11-18T05:53:53.422Z,62.05
2023-11-18T05:56:58.540Z,62.15
2023-11-18T06:00:01.865Z,60.85
2023-11-18T06:03:04.548Z,61.28
2023-11-18T06:06:08.129Z,62.40
2023-11-18T06:09:19.103Z,61.07
2023-11-18T06:12:21.524Z,61.46
2023-11-18T06:15:23.985Z,61.49
2023-11-18T06:18:26.468Z,62.54
2023-11-18T06:21:32.462Z,61.27
2023-11-18T06:24:34.992Z,62.51
2023-11-18T06:27:37.421Z,60.20
2023-11-18T06:30:40.185Z,60.26
2023-11-18T06:33:46.881Z,61.16
2023-11-18T06:36:49.632Z,62.10
2023-11-18T06:39:52.111Z,60.99
2023-11-18T06:43:02.641Z,62.29
2023-11-18T06:46:05.216Z,62.58
2023-11-18T06:49:08.639Z,61.68
2023-11-18T06:52:13.100Z,61.39
2023-11-18T06:55:16.527Z,61.86
2023-11-18T06:58:19.317Z,60.39
2023-11-18T07:01:22.238Z,60.06
2023-11-18T07:04:24.682Z,60.58
2023-11-18T07:07:27.278Z,61.89
2023-11-18T07:10:29.680Z,58.40
2023-11-18T07:13:32.291Z,61.18
2023-11-18T07:16:34.746Z,58.98
2023-11-18T07:19:37.230Z,60.68
2023-11-18T07:22:40.602Z,60.99
2023-11-18T07:25:44.595Z,58.79
2023-11-18T07:28:47.198Z,59.80
2023-11-18T07:31:50.682Z,59.99
2023-11-18T07:34:53.262Z,60.71
2023-11-18T07:37:55.753Z,61.44
2023-11-18T07:40:58.277Z,61.74
2023-11-18T07:44:01.876Z,62.12
2023-11-18T07:47:06.183Z,61.14
2023-11-18T07:50:13.649Z,60.91
2023-11-18T07:53:17.167Z,59.97
2023-11-18T07:56:19.877Z,59.75
2023-11-18T07:59:23.153Z,60.67
2023-11-18T08:02:26.391Z,61.11
2023-11-18T08:05:29.455Z,61.54
2023-11-18T08:08:31.924Z,59.55
2023-11-18T08:11:34.652Z,59.82
2023-11-18T08:14:37.257Z,59.56
2023-11-18T08:17:39.790Z,60.36
2023-11-18T08:20:42.640Z,60.95
2023-11-18T08:23:45.042Z,60.31
2023-11-18T08:26:48.148Z,60.33
2023-11-18T08:29:50.634Z,59.77
2023-11-18T08:32:53.652Z,60.19
2023-11-18T08:35:56.416Z,60.25
2023-11-18T08:38:58.865Z,61.97
2023-11-18T08:42:01.359Z,60.67
2023-11-18T08:45:05.672Z,61.45
2023-11-18T08:48:09.776Z,60.74
2023-11-18T08:51:14.343Z,61.13
2023-11-18T08:54:23.633Z,59.75
2023-11-18T08:57:26.530Z,61.00
2023-11-18T09:00:49.361Z,58.94
2023-11-18T09:03:54.168Z,58.17
2023-11-18T09:07:01.494Z,60.29
2023-11-18T09:10:04.234Z,60.57
2023-11-18T09:13:06.916Z,60.56
2023-11-18T09:16:10.280Z,61.27
2023-11-18T09:19:12.907Z,60.70
2023-11-18T09:22:15.992Z,60.71
2023-11-18T09:25:18.744Z,60.70
2023-11-18T09:28:22.107Z,60.27
2023-11-18T09:31:24.651Z,60.29
2023-11-18T09:34:34.546Z,60.48
2023-11-18T09:37:37.903Z,60.27
2023-11-18T09:40:44.635Z,59.96
2023-11-18T09:43:48.785Z,59.38
2023-11-18T09:46:58.765Z,58.64
2023-11-18T09:50:04.593Z,57.07
2023-11-18T09:53:12.521Z,55.23
2023-11-18T09:56:27.657Z,53.00
2023-11-18T09:59:36.969Z,51.20
2023-11-18T10:02:42.797Z,49.79
2023-11-18T10:05:46.205Z,49.05
2023-11-18T10:08:49.988Z,49.77
2023-11-18T10:11:56.367Z,50.15
2023-11-18T10:14:59.873Z,51.33
2023-11-18T10:18:11.143Z,52.52
2023-11-18T10:21:19.024Z,53.04
2023-11-18T10:24:21.639Z,53.32
2023-11-18T10:27:30.868Z,54.06
2023-11-18T10:30:34.457Z,54.45
2023-11-18T10:33:43.540Z,54.42
2023-11-18T10:37:07.842Z,55.91
2023-11-18T10:40:14.553Z,55.64
2023-11-18T10:43:18.170Z,56.42
2023-11-18T10:46:22.342Z,56.76
2023-11-18T10:49:25.353Z,56.81
2023-11-18T10:52:31.972Z,57.05
2023-11-18T10:55:41.464Z,57.18
2023-11-18T10:58:44.022Z,57.95
2023-11-18T11:01:50.531Z,57.82
2023-11-18T11:04:54.207Z,57.85
2023-11-18T11:07:57.798Z,57.91
2023-11-18T11:11:01.693Z,57.67
2023-11-18T11:14:05.122Z,58.06
2023-11-18T11:17:12.832Z,58.28
2023-11-18T11:20:25.181Z,58.14
2023-11-18T11:23:51.852Z,57.95
2023-11-18T11:27:30.019Z,57.54
2023-11-18T11:30:52.255Z,57.62
2023-11-18T11:34:00.115Z,59.34
2023-11-18T11:37:04.648Z,58.74
2023-11-18T11:40:12.038Z,57.56
2023-11-18T11:43:22.307Z,59.69
2023-11-18T11:46:26.414Z,58.66
2023-11-18T11:49:36.101Z,59.60
2023-11-18T11:52:43.746Z,59.16
2023-11-18T11:55:52.703Z,58.77
2023-11-18T11:59:01.239Z,59.51
2023-11-18T12:02:09.000Z,60.20
2023-11-18T12:05:20.444Z,59.23
2023-11-18T12:08:26.710Z,59.47
2023-11-18T12:11:34.623Z,60.28
2023-11-18T12:14:52.003Z,59.62
2023-11-18T12:17:58.778Z,59.12
2023-11-18T12:21:05.223Z,58.75
2023-11-18T12:24:20.456Z,58.71
2023-11-18T12:27:41.522Z,59.08
2023-11-18T12:30:58.170Z,59.55
2023-11-18T12:34:06.998Z,60.03
2023-11-18T12:37:48.516Z,58.42
2023-11-18T12:41:08.441Z,59.55
2023-11-18T12:44:20.194Z,58.62
2023-11-18T12:47:24.496Z,59.42
2023-11-18T12:50:29.902Z,59.71
2023-11-18T12:53:32.453Z,59.12
2023-11-18T12:56:35.516Z,58.38
2023-11-18T12:59:41.342Z,58.64
2023-11-18T13:02:43.949Z,59.56
2023-11-18T13:05:46.629Z,59.77
2023-11-18T13:08:50.084Z,58.32
2023-11-18T13:12:03.109Z,59.02
2023-11-18T13:15:09.703Z,59.71
2023-11-18T13:18:13.587Z,60.42
2023-11-18T13:21:17.734Z,59.12
2023-11-18T13:24:20.449Z,59.41
2023-11-18T13:27:24.212Z,57.45
2023-11-18T13:30:26.632Z,57.62
2023-11-18T13:33:29.103Z,59.67
2023-11-18T13:36:33.150Z,58.76
2023-11-18T13:39:35.816Z,60.06
2023-11-18T13:42:40.302Z,60.07
2023-11-18T13:45:44.051Z,60.12
2023-11-18T13:48:52.512Z,60.15
2023-11-18T13:51:57.027Z,59.86
2023-11-18T13:55:01.511Z,59.96
2023-11-18T13:58:06.279Z,58.32
2023-11-18T14:01:09.614Z,60.11
2023-11-18T14:04:12.158Z,59.81
2023-11-18T14:07:18.456Z,59.61
2023-11-18T14:10:21.065Z,60.20
2023-11-18T14:13:23.554Z,59.74
2023-11-18T14:16:27.490Z,59.40
2023-11-18T14:19:32.893Z,59.32
2023-11-18T14:22:36.321Z,60.56
2023-11-18T14:25:39.545Z,60.54
2023-11-18T14:28:43.842Z,59.91
2023-11-18T14:31:46.860Z,59.41
2023-11-18T14:34:50.303Z,59.32
2023-11-18T14:37:54.095Z,59.50
2023-11-18T14:40:56.672Z,60.22
2023-11-18T14:43:59.176Z,61.26
2023-11-18T14:47:01.794Z,60.21
2023-11-18T14:50:06.672Z,59.47
2023-11-18T14:53:09.118Z,59.49
2023-11-18T14:56:11.758Z,59.77
2023-11-18T14:59:14.240Z,59.47
2023-11-18T15:02:16.809Z,60.01
2023-11-18T15:05:20.240Z,59.59
2023-11-18T15:08:23.018Z,60.67
2023-11-18T15:11:25.979Z,60.51
2023-11-18T15:14:29.808Z,60.28
2023-11-18T15:17:43.913Z,60.18
2023-11-18T15:20:50.886Z,60.22
2023-11-18T15:23:53.974Z,60.22
2023-11-18T15:26:56.585Z,60.32
2023-11-18T15:29:59.076Z,58.47
2023-11-18T15:33:02.820Z,59.64
2023-11-18T15:36:08.593Z,59.44
2023-11-18T15:39:11.210Z,61.53
2023-11-18T15:42:14.984Z,59.82
2023-11-18T15:45:19.323Z,60.76
2023-11-18T15:48:21.824Z,58.65
2023-11-18T15:51:26.049Z,59.64
2023-11-18T15:54:28.558Z,60.76
2023-11-18T15:57:31.052Z,60.62
2023-11-18T16:00:33.706Z,59.00
2023-11-18T16:03:36.255Z,60.20
2023-11-18T16:06:38.815Z,60.46
2023-11-18T16:09:41.245Z,60.06
2023-11-18T16:12:43.700Z,60.07
2023-11-18T16:15:46.167Z,59.98
2023-11-18T16:18:48.594Z,61.52
2023-11-18T16:21:52.770Z,60.54
2023-11-18T16:24:55.343Z,60.73
2023-11-18T16:28:00.190Z,59.45
2023-11-18T16:31:02.874Z,60.81
2023-11-18T16:34:07.728Z,59.38
2023-11-18T16:37:10.235Z,61.64
2023-11-18T16:40:17.315Z,60.93
2023-11-18T16:43:19.847Z,58.18
2023-11-18T16:46:22.689Z,60.70
2023-11-18T16:49:25.211Z,59.61
2023-11-18T16:52:27.716Z,61.72
2023-11-18T16:55:32.822Z,61.13
2023-11-18T16:58:36.829Z,59.99
2023-11-18T17:01:39.289Z,61.26
2023-11-18T17:04:41.853Z,60.56
2023-11-18T17:07:44.578Z,62.09
2023-11-18T17:10:54.645Z,60.92
2023-11-18T17:13:57.395Z,59.40
2023-11-18T17:16:59.971Z,61.50
2023-11-18T17:20:02.514Z,60.47
2023-11-18T17:23:05.097Z,60.67
2023-11-18T17:26:09.610Z,61.02
2023-11-18T17:29:14.950Z,60.72
2023-11-18T17:32:17.520Z,61.79
2023-11-18T17:35:21.619Z,59.78
2023-11-18T17:38:24.374Z,61.53
2023-11-18T17:41:26.866Z,61.80
2023-11-18T17:44:29.408Z,61.09
2023-11-18T17:47:35.935Z,61.40
2023-11-18T17:50:38.763Z,61.71
2023-11-18T17:53:41.478Z,59.92
2023-11-18T17:56:44.140Z,60.43
2023-11-18T17:59:46.808Z,60.09
2023-11-18T18:02:50.214Z,60.83
2023-11-18T18:05:52.903Z,61.09
2023-11-18T18:08:56.084Z,61.16
2023-11-18T18:11:58.483Z,61.11
2023-11-18T18:15:01.277Z,60.30
2023-11-18T18:18:04.118Z,61.40
2023-11-18T18:21:08.556Z,60.99
2023-11-18T18:24:12.230Z,62.18
2023-11-18T18:27:14.731Z,61.86
2023-11-18T18:30:17.775Z,61.62
2023-11-18T18:33:20.786Z,60.66
2023-11-18T18:36:23.410Z,61.20
2023-11-18T18:39:26.023Z,61.10
2023-11-18T18:42:28.652Z,59.83
2023-11-18T18:45:32.013Z,61.35
2023-11-18T18:48:34.674Z,61.43
2023-11-18T18:51:37.142Z,60.51
2023-11-18T18:54:39.901Z,61.49
2023-11-18T18:57:43.509Z,60.69
2023-11-18T19:00:45.971Z,60.82
2023-11-18T19:03:48.836Z,60.89
2023-11-18T19:06:51.343Z,62.09
2023-11-18T19:09:53.941Z,60.74
2023-11-18T19:13:01.058Z,61.93
2023-11-18T19:16:04.711Z,60.90
2023-11-18T19:19:07.183Z,61.94
2023-11-18T19:22:10.000Z,61.04
2023-11-18T19:25:16.923Z,61.15
2023-11-18T19:28:19.834Z,60.82
2023-11-18T19:31:22.412Z,61.78
2023-11-18T19:34:26.280Z,62.27
2023-11-18T19:37:28.948Z,63.04
2023-11-18T19:40:33.016Z,62.16
2023-11-18T19:43:35.501Z,61.96
2023-11-18T19:46:38.173Z,61.48
2023-11-18T19:49:42.162Z,61.64
2023-11-18T19:52:44.791Z,60.73
2023-11-18T19:55:47.509Z,60.97
2023-11-18T19:58:50.418Z,62.65
2023-11-18T20:01:55.924Z,61.82
2023-11-18T20:04:59.569Z,61.48
2023-11-18T20:08:02.344Z,61.46
2023-11-18T20:11:08.487Z,61.26
2023-11-18T20:14:11.120Z,60.64
2023-11-18T20:17:14.133Z,60.41
2023-11-18T20:20:18.351Z,61.91
2023-11-18T20:23:21.149Z,61.54
2023-11-18T20:26:23.943Z,62.36
2023-11-18T20:29:26.443Z,61.47
2023-11-18T20:32:29.862Z,62.25
2023-11-18T20:35:32.643Z,61.74
2023-11-18T20:38:35.457Z,60.98
2023-11-18T20:41:38.022Z,59.84
2023-11-18T20:44:40.574Z,61.57
2023-11-18T20:47:43.209Z,61.60
2023-11-18T20:50:52.068Z,62.38
2023-11-18T20:53:54.755Z,60.57
2023-11-18T20:56:57.418Z,62.23
2023-11-18T21:00:00.152Z,61.71
2023-11-18T21:03:03.764Z,61.98
2023-11-18T21:06:07.773Z,60.66
2023-11-18T21:09:10.512Z,61.85
2023-11-18T21:12:18.260Z,62.61
2023-11-18T21:15:21.849Z,61.89
2023-11-18T21:18:24.292Z,62.67
2023-11-18T21:21:26.752Z,62.07
2023-11-18T21:24:29.166Z,61.35
2023-11-18T21:27:31.629Z,61.33
2023-11-18T21:30:34.224Z,61.52
2023-11-18T21:33:38.787Z,62.02
2023-11-18T21:36:41.353Z,62.72
2023-11-18T21:39:43.769Z,61.57
2023-11-18T21:42:47.108Z,61.99
2023-11-18T21:45:49.804Z,62.63
2023-11-18T21:48:52.290Z,62.75
2023-11-18T21:51:54.737Z,61.14
2023-11-18T21:54:57.232Z,61.96
2023-11-18T21:57:59.716Z,63.12
2023-11-18T22:01:02.341Z,63.05
2023-11-18T22:04:05.052Z,62.38
2023-11-18T22:07:07.974Z,63.29
2023-11-18T22:10:17.694Z,62.25
2023-11-18T22:13:20.138Z,61.70
2023-11-18T22:16:22.682Z,62.10
2023-11-18T22:19:27.602Z,62.73
2023-11-18T22:25:35.436Z,61.70
2023-11-18T22:28:39.346Z,62.35
2023-11-18T22:31:41.801Z,62.56
2023-11-18T22:34:44.873Z,61.88
2023-11-18T22:37:48.151Z,61.84
2023-11-18T22:40:50.864Z,62.16
2023-11-18T22:43:54.549Z,63.76
2023-11-18T22:46:57.728Z,62.01
2023-11-18T22:50:01.155Z,61.34
2023-11-18T22:53:05.082Z,62.42
2023-11-18T22:56:08.724Z,61.77
2023-11-18T22:59:11.240Z,62.09
2023-11-18T23:02:15.961Z,61.66
2023-11-18T23:05:18.497Z,62.46
2023-11-18T23:08:23.397Z,61.07
2023-11-18T23:11:26.666Z,61.61
2023-11-18T23:14:29.793Z,61.45
2023-11-18T23:17:35.012Z,62.62
2023-11-18T23:20:37.768Z,61.79
2023-11-18T23:23:40.536Z,62.89
2023-11-18T23:26:43.069Z,62.41
2023-11-18T23:29:45.498Z,62.83
2023-11-18T23:32:53.247Z,61.85
2023-11-18T23:35:55.705Z,62.27
2023-11-18T23:42:03.816Z,61.88
2023-11-18T23:45:08.099Z,60.82
2023-11-18T23:48:11.272Z,62.12
2023-11-18T23:51:13.744Z,62.84
2023-11-18T23:54:16.262Z,61.01
2023-11-18T23:57:18.989Z,62.39
